Time;durP1;ratioP1;P1;durP2;ratioP2;P2;SDS_P1;SDS_P2;PMS_P1;PMS_P2;Temp;Humidity;BMP_temperature;BMP_pressure;BME280_temperature;BME280_humidity;BME280_pressure;Samples;Min_cycle;Max_cycle;Signal;HPM_P1;HPM_P2
2022/07/02 00:02:08;;;;;;;1.35;1.00;;;;;;;;;;5099366;28;20211;-60
2022/07/02 00:04:37;;;;;;;1.20;1.10;;;;;;;;;;5098969;28;20204;-60
2022/07/02 00:07:06;;;;;;;3.75;1.20;;;;;;;;;;5098906;28;20694;-60
2022/07/02 00:09:34;;;;;;;1.17;0.90;;;;;;;;;;5098937;28;20544;-60
2022/07/02 00:12:02;;;;;;;1.23;1.08;;;;;;;;;;5099435;28;20203;-61
2022/07/02 00:14:31;;;;;;;2.55;1.20;;;;;;;;;;5098827;28;20204;-60
2022/07/02 00:17:00;;;;;;;1.27;1.17;;;;;;;;;;5098482;28;20595;-59
2022/07/02 00:19:28;;;;;;;1.17;1.08;;;;;;;;;;5098503;28;20630;-60
2022/07/02 00:21:56;;;;;;;3.08;1.00;;;;;;;;;;5099024;28;20203;-61
2022/07/02 00:24:24;;;;;;;1.40;0.90;;;;;;;;;;5098547;28;20268;-61
2022/07/02 00:26:55;;;;;;;2.72;0.90;;;;;;;;;;5098771;28;20259;-60
2022/07/02 00:29:27;;;;;;;1.17;1.00;;;;;;;;;;5098556;28;20210;-61
2022/07/02 00:31:56;;;;;;;1.20;1.10;;;;;;;;;;5098784;28;20542;-60
2022/07/02 00:34:25;;;;;;;1.20;1.10;;;;;;;;;;5098340;28;20557;-60
2022/07/02 00:36:52;;;;;;;3.03;1.33;;;;;;;;;;5098633;28;20204;-61
2022/07/02 00:39:20;;;;;;;3.25;1.30;;;;;;;;;;5098717;28;20260;-60
2022/07/02 00:41:48;;;;;;;1.27;1.08;;;;;;;;;;5098201;28;20601;-60
2022/07/02 00:44:15;;;;;;;3.00;1.10;;;;;;;;;;5098038;28;20204;-61
2022/07/02 00:46:44;;;;;;;1.95;1.00;;;;;;;;;;5098560;28;20204;-60
2022/07/02 00:49:13;;;;;;;2.33;1.10;;;;;;;;;;5098319;28;20252;-60
2022/07/02 00:51:40;;;;;;;1.17;0.90;;;;;;;;;;5097842;28;20267;-60
2022/07/02 00:54:08;;;;;;;3.17;1.13;;;;;;;;;;5098339;28;20200;-60
2022/07/02 00:56:36;;;;;;;1.10;1.00;;;;;;;;;;5098080;28;20286;-60
2022/07/02 00:59:04;;;;;;;1.77;1.00;;;;;;;;;;5097343;28;20224;-60
2022/07/02 01:01:32;;;;;;;2.65;1.13;;;;;;;;;;5097458;28;20210;-60
2022/07/02 01:04:01;;;;;;;2.00;1.00;;;;;;;;;;5098058;28;20203;-60
2022/07/02 01:06:31;;;;;;;1.77;1.00;;;;;;;;;;5098113;28;20573;-60
2022/07/02 01:11:47;;;;;;;2.10;1.10;;;;;;;;;;5098011;28;20191;-61
2022/07/02 01:14:18;;;;;;;5.65;1.20;;;;;;;;;;5097895;28;20217;-60
2022/07/02 01:16:46;;;;;;;1.55;1.00;;;;;;;;;;5097783;28;20587;-60
2022/07/02 01:19:16;;;;;;;1.48;1.05;;;;;;;;;;5097586;28;20223;-60
2022/07/02 01:21:58;;;;;;;1.73;1.10;;;;;;;;;;5097868;28;20261;-60
2022/07/02 01:24:27;;;;;;;2.60;0.90;;;;;;;;;;5097264;28;20455;-60
2022/07/02 01:26:54;;;;;;;2.33;1.10;;;;;;;;;;5097146;28;20250;-60
2022/07/02 01:29:22;;;;;;;1.92;1.00;;;;;;;;;;5097895;28;20535;-61
2022/07/02 01:31:50;;;;;;;1.35;1.20;;;;;;;;;;5097016;28;20239;-60
2022/07/02 01:34:17;;;;;;;3.13;1.00;;;;;;;;;;5098149;28;20583;-60
2022/07/02 01:36:45;;;;;;;1.42;1.10;;;;;;;;;;5097890;28;20203;-60
2022/07/02 01:39:12;;;;;;;1.45;1.15;;;;;;;;;;5097873;28;20280;-60
2022/07/02 01:41:41;;;;;;;2.33;1.20;;;;;;;;;;5097864;28;20298;-60
2022/07/02 01:44:09;;;;;;;1.58;1.13;;;;;;;;;;5096789;28;20336;-59
2022/07/02 01:46:37;;;;;;;1.75;1.10;;;;;;;;;;5097673;28;20480;-60
2022/07/02 01:49:05;;;;;;;1.33;1.08;;;;;;;;;;5097540;28;20292;-61
2022/07/02 01:51:33;;;;;;;1.60;1.10;;;;;;;;;;5097347;28;20267;-61
2022/07/02 01:54:00;;;;;;;1.85;0.90;;;;;;;;;;5097686;28;20268;-60
2022/07/02 01:56:32;;;;;;;1.95;1.10;;;;;;;;;;5097579;28;20212;-60
2022/07/02 01:59:00;;;;;;;2.08;1.08;;;;;;;;;;5097020;28;20293;-60
2022/07/02 02:01:28;;;;;;;2.05;1.08;;;;;;;;;;5097547;28;20250;-60
2022/07/02 02:03:56;;;;;;;1.67;1.20;;;;;;;;;;5097401;28;20211;-60
2022/07/02 02:06:23;;;;;;;2.63;1.08;;;;;;;;;;5097487;28;20276;-60
2022/07/02 02:08:51;;;;;;;1.10;1.00;;;;;;;;;;5097255;28;20268;-60
2022/07/02 02:11:18;;;;;;;1.45;1.15;;;;;;;;;;5097151;28;20208;-60
2022/07/02 02:13:46;;;;;;;4.32;1.20;;;;;;;;;;5097191;28;20562;-61
2022/07/02 02:16:15;;;;;;;2.30;1.10;;;;;;;;;;5094975;28;20204;-60
2022/07/02 02:18:42;;;;;;;1.13;1.02;;;;;;;;;;5085855;28;20240;-61
2022/07/02 02:21:10;;;;;;;3.10;1.20;;;;;;;;;;5077635;28;20265;-60
2022/07/02 02:23:38;;;;;;;1.55;1.08;;;;;;;;;;5077760;28;20231;-60
2022/07/02 02:26:05;;;;;;;2.58;1.10;;;;;;;;;;5081558;28;20240;-61
2022/07/02 02:28:32;;;;;;;4.70;1.15;;;;;;;;;;5097995;28;20250;-60
2022/07/02 02:31:00;;;;;;;1.80;1.10;;;;;;;;;;5097763;28;20253;-61
2022/07/02 02:33:29;;;;;;;1.42;1.00;;;;;;;;;;5097649;28;20204;-59
2022/07/02 02:35:56;;;;;;;2.00;1.02;;;;;;;;;;5093995;28;20209;-60
2022/07/02 02:38:25;;;;;;;2.45;1.17;;;;;;;;;;5079251;28;20231;-60
2022/07/02 02:40:53;;;;;;;1.25;1.02;;;;;;;;;;5080682;28;20627;-61
2022/07/02 02:43:20;;;;;;;1.20;1.10;;;;;;;;;;5080632;28;20715;-60
2022/07/02 02:45:48;;;;;;;1.10;1.00;;;;;;;;;;5082049;28;20660;-59
2022/07/02 02:48:16;;;;;;;2.05;1.20;;;;;;;;;;5083227;28;20558;-59
2022/07/02 02:50:45;;;;;;;1.58;0.98;;;;;;;;;;5080833;28;20240;-61
2022/07/02 02:53:12;;;;;;;1.40;1.30;;;;;;;;;;5080744;28;20579;-61
2022/07/02 02:55:39;;;;;;;3.17;1.08;;;;;;;;;;5080529;28;20235;-60
2022/07/02 02:58:07;;;;;;;1.42;0.90;;;;;;;;;;5099944;28;20284;-60
2022/07/02 03:00:34;;;;;;;1.58;1.00;;;;;;;;;;5100135;28;20267;-60
2022/07/02 03:03:02;;;;;;;1.52;1.00;;;;;;;;;;5100778;28;20246;-60
2022/07/02 03:05:30;;;;;;;1.70;1.20;;;;;;;;;;5100652;28;20247;-60
2022/07/02 03:07:59;;;;;;;1.50;1.08;;;;;;;;;;5080957;28;20287;-59
2022/07/02 03:10:26;;;;;;;1.50;0.98;;;;;;;;;;5080412;28;20200;-59
2022/07/02 03:12:53;;;;;;;1.08;0.93;;;;;;;;;;5080354;28;20262;-60
2022/07/02 03:15:21;;;;;;;2.25;1.13;;;;;;;;;;5080461;28;20266;-60
2022/07/02 03:17:48;;;;;;;1.08;1.08;;;;;;;;;;5096908;28;20228;-61
2022/07/02 03:20:16;;;;;;;2.75;1.20;;;;;;;;;;5100282;28;20238;-60
2022/07/02 03:22:44;;;;;;;2.25;1.10;;;;;;;;;;5100147;28;20298;-60
2022/07/02 03:25:12;;;;;;;1.42;1.02;;;;;;;;;;5090775;28;20231;-60
2022/07/02 03:27:41;;;;;;;2.15;1.23;;;;;;;;;;5080143;28;20634;-61
2022/07/02 03:30:09;;;;;;;1.50;1.17;;;;;;;;;;5080047;28;20240;-60
2022/07/02 03:32:37;;;;;;;1.90;1.58;;;;;;;;;;5079967;28;20210;-60
2022/07/02 03:35:04;;;;;;;1.42;1.33;;;;;;;;;;5087469;28;20242;-61
2022/07/02 03:37:32;;;;;;;2.65;1.30;;;;;;;;;;5100015;28;20203;-59
2022/07/02 03:39:59;;;;;;;1.55;1.05;;;;;;;;;;5100044;28;20277;-60
2022/07/02 03:42:28;;;;;;;1.60;1.10;;;;;;;;;;5099832;28;20243;-60
2022/07/02 03:44:55;;;;;;;2.72;1.10;;;;;;;;;;5093312;28;20196;-60
2022/07/02 03:47:23;;;;;;;1.30;1.20;;;;;;;;;;5079877;28;20285;-61
2022/07/02 03:49:51;;;;;;;2.28;1.30;;;;;;;;;;5078847;28;20200;-60
2022/07/02 03:52:18;;;;;;;1.30;1.15;;;;;;;;;;5079495;28;20260;-60
2022/07/02 03:54:46;;;;;;;4.15;1.30;;;;;;;;;;5080358;28;20239;-60
2022/07/02 03:57:13;;;;;;;2.25;0.98;;;;;;;;;;5079271;28;20557;-60
2022/07/02 03:59:42;;;;;;;2.00;1.20;;;;;;;;;;5079227;28;20232;-60
2022/07/02 04:02:10;;;;;;;1.52;1.20;;;;;;;;;;5078445;28;20290;-61
2022/07/02 04:04:37;;;;;;;2.28;1.20;;;;;;;;;;5082517;28;20265;-60
2022/07/02 04:07:05;;;;;;;2.15;1.10;;;;;;;;;;5098956;28;20238;-60
2022/07/02 04:09:32;;;;;;;2.08;1.20;;;;;;;;;;5099233;28;20691;-60
2022/07/02 04:12:00;;;;;;;2.45;1.15;;;;;;;;;;5098960;28;20203;-60
2022/07/02 04:14:27;;;;;;;1.20;1.10;;;;;;;;;;5096963;28;20427;-60
2022/07/02 04:16:57;;;;;;;3.63;1.52;;;;;;;;;;5078855;28;20254;-61
2022/07/02 04:19:24;;;;;;;2.67;1.20;;;;;;;;;;5078705;28;20262;-59
2022/07/02 04:21:52;;;;;;;2.30;1.30;;;;;;;;;;5078739;28;20204;-60
2022/07/02 04:24:19;;;;;;;1.85;1.02;;;;;;;;;;5079334;28;20311;-60
2022/07/02 04:26:47;;;;;;;1.40;1.30;;;;;;;;;;5098322;28;20261;-60
2022/07/02 04:29:15;;;;;;;1.73;1.10;;;;;;;;;;5099274;28;20235;-60
2022/07/02 04:31:42;;;;;;;1.95;1.00;;;;;;;;;;5099212;28;20590;-60
2022/07/02 04:34:12;;;;;;;1.60;1.10;;;;;;;;;;5098934;28;20243;-60
2022/07/02 04:36:39;;;;;;;2.15;1.20;;;;;;;;;;5098430;28;20203;-60
2022/07/02 04:39:07;;;;;;;1.55;1.20;;;;;;;;;;5098811;28;20309;-60
2022/07/02 04:41:34;;;;;;;1.23;1.13;;;;;;;;;;5098619;28;20231;-60
2022/07/02 04:44:02;;;;;;;3.97;1.27;;;;;;;;;;5098495;28;20632;-61
2022/07/02 04:46:30;;;;;;;1.40;1.10;;;;;;;;;;5061353;28;20258;-59
2022/07/02 04:48:57;;;;;;;2.72;1.20;;;;;;;;;;5078272;28;20204;-60
2022/07/02 04:51:27;;;;;;;1.92;1.52;;;;;;;;;;5077708;28;20835;-60
2022/07/02 04:53:54;;;;;;;2.17;1.40;;;;;;;;;;5077712;28;20204;-60
2022/07/02 04:56:22;;;;;;;3.00;1.60;;;;;;;;;;5094773;28;20541;-60
2022/07/02 04:58:50;;;;;;;1.88;1.40;;;;;;;;;;5097682;28;20292;-60
2022/07/02 05:01:17;;;;;;;3.08;1.30;;;;;;;;;;5096313;28;20231;-62
2022/07/02 05:03:46;;;;;;;1.83;1.50;;;;;;;;;;5098659;28;20560;-60
2022/07/02 05:06:13;;;;;;;2.08;1.40;;;;;;;;;;5082041;28;20234;-60
2022/07/02 05:08:43;;;;;;;2.10;1.50;;;;;;;;;;5077498;28;20236;-59
2022/07/02 05:11:10;;;;;;;2.55;1.60;;;;;;;;;;5077392;28;20212;-60
2022/07/02 05:13:38;;;;;;;2.08;1.33;;;;;;;;;;5077842;28;20536;-60
2022/07/02 05:16:05;;;;;;;2.15;1.67;;;;;;;;;;5078451;28;20295;-60
2022/07/02 05:18:33;;;;;;;1.73;1.35;;;;;;;;;;5077879;28;20571;-60
2022/07/02 05:21:00;;;;;;;1.85;1.75;;;;;;;;;;5077461;28;20635;-60
2022/07/02 05:23:28;;;;;;;1.38;1.27;;;;;;;;;;5088576;28;20539;-60
2022/07/02 05:25:57;;;;;;;1.23;1.23;;;;;;;;;;5097786;28;20472;-60
2022/07/02 05:28:24;;;;;;;1.63;1.48;;;;;;;;;;5098288;28;20264;-61
2022/07/02 05:30:52;;;;;;;1.42;1.33;;;;;;;;;;5098224;28;20231;-60
2022/07/02 05:33:20;;;;;;;2.22;1.50;;;;;;;;;;5087958;28;20200;-61
2022/07/02 05:35:47;;;;;;;1.80;1.70;;;;;;;;;;5077562;28;20204;-60
2022/07/02 05:38:15;;;;;;;1.60;1.50;;;;;;;;;;5077922;28;20247;-61
2022/07/02 05:40:42;;;;;;;1.60;1.50;;;;;;;;;;5077335;28;20224;-60
2022/07/02 05:43:11;;;;;;;1.73;1.63;;;;;;;;;;5085383;28;20544;-60
2022/07/02 05:45:39;;;;;;;1.77;1.67;;;;;;;;;;5097545;28;20204;-59
2022/07/02 05:48:06;;;;;;;1.50;1.40;;;;;;;;;;5097247;28;20280;-60
2022/07/02 05:50:34;;;;;;;2.03;1.60;;;;;;;;;;5096567;28;20267;-59
2022/07/02 05:53:02;;;;;;;1.55;1.30;;;;;;;;;;5090448;28;20301;-61
2022/07/02 05:55:29;;;;;;;1.95;1.70;;;;;;;;;;5077565;28;20205;-61
2022/07/02 05:57:57;;;;;;;1.60;1.50;;;;;;;;;;5077457;28;20204;-60
2022/07/02 06:00:25;;;;;;;1.27;1.17;;;;;;;;;;5076885;28;20313;-60
2022/07/02 06:02:53;;;;;;;1.67;1.58;;;;;;;;;;5081281;28;20238;-59
2022/07/02 06:08:06;;;;;;;2.10;1.60;;;;;;;;;;5096777;28;20216;-60
2022/07/02 06:10:34;;;;;;;2.10;1.90;;;;;;;;;;5097644;28;20609;-60
2022/07/02 06:13:01;;;;;;;2.40;2.20;;;;;;;;;;5093140;28;20250;-60
2022/07/02 06:15:30;;;;;;;2.20;2.00;;;;;;;;;;5080539;28;20315;-60
2022/07/02 06:18:00;;;;;;;2.00;1.73;;;;;;;;;;5081067;28;20243;-60
2022/07/02 06:20:28;;;;;;;1.90;1.70;;;;;;;;;;5079527;28;20641;-60
2022/07/02 06:22:55;;;;;;;2.55;2.35;;;;;;;;;;5081591;28;20252;-60
2022/07/02 06:25:23;;;;;;;1.83;1.73;;;;;;;;;;5080360;28;20265;-61
2022/07/02 06:27:50;;;;;;;1.70;1.60;;;;;;;;;;5079601;28;20200;-61
2022/07/02 06:30:18;;;;;;;1.70;1.60;;;;;;;;;;5079875;28;20240;-61
2022/07/02 06:32:48;;;;;;;2.17;1.95;;;;;;;;;;5082372;28;20254;-61
2022/07/02 06:35:16;;;;;;;1.48;1.38;;;;;;;;;;5100044;28;20669;-60
2022/07/02 06:37:43;;;;;;;1.50;1.40;;;;;;;;;;5100074;28;20264;-61
2022/07/02 06:40:11;;;;;;;1.70;1.60;;;;;;;;;;5099256;28;20203;-60
2022/07/02 06:42:39;;;;;;;1.77;1.58;;;;;;;;;;5097830;28;20204;-61
2022/07/02 06:45:07;;;;;;;1.50;1.40;;;;;;;;;;5079596;28;20607;-60
2022/07/02 06:47:35;;;;;;;1.90;1.80;;;;;;;;;;5079708;28;20204;-60
2022/07/02 06:50:03;;;;;;;1.52;1.40;;;;;;;;;;5079377;28;20584;-60
2022/07/02 06:52:31;;;;;;;1.55;1.45;;;;;;;;;;5079555;28;20232;-60
2022/07/02 06:54:59;;;;;;;1.58;1.48;;;;;;;;;;5099127;28;20557;-60
2022/07/02 06:57:27;;;;;;;2.38;2.17;;;;;;;;;;5099451;28;20647;-59
2022/07/02 06:59:55;;;;;;;2.92;2.30;;;;;;;;;;5099120;28;20203;-60
2022/07/02 07:02:22;;;;;;;1.77;1.50;;;;;;;;;;5088488;28;20227;-60
2022/07/02 07:04:50;;;;;;;2.00;1.80;;;;;;;;;;5078143;28;20232;-60
2022/07/02 07:07:19;;;;;;;1.65;1.55;;;;;;;;;;5077932;28;20290;-60
2022/07/02 07:09:47;;;;;;;1.70;1.60;;;;;;;;;;5078165;28;20204;-60
2022/07/02 07:12:14;;;;;;;1.50;1.40;;;;;;;;;;5086162;28;20654;-60
2022/07/02 07:14:42;;;;;;;2.13;2.03;;;;;;;;;;5098680;28;20258;-62
2022/07/02 07:17:09;;;;;;;2.30;2.10;;;;;;;;;;5097989;28;20245;-60
2022/07/02 07:19:37;;;;;;;2.50;2.38;;;;;;;;;;5098544;28;20239;-60
2022/07/02 07:22:04;;;;;;;2.75;1.90;;;;;;;;;;5091218;28;20662;-60
2022/07/02 07:24:33;;;;;;;2.65;1.90;;;;;;;;;;5076868;28;20240;-60
2022/07/02 07:27:01;;;;;;;2.22;1.80;;;;;;;;;;5078343;28;20235;-60
2022/07/02 07:29:28;;;;;;;2.03;1.90;;;;;;;;;;5077772;28;20580;-60
2022/07/02 07:31:56;;;;;;;1.67;1.58;;;;;;;;;;5083089;28;20257;-61
2022/07/02 07:34:23;;;;;;;2.38;2.20;;;;;;;;;;5097836;28;20235;-60
2022/07/02 07:36:53;;;;;;;2.05;1.80;;;;;;;;;;5098748;28;20203;-61
2022/07/02 07:39:20;;;;;;;2.25;2.00;;;;;;;;;;5098514;28;20211;-61
2022/07/02 07:41:49;;;;;;;2.38;2.00;;;;;;;;;;5093692;28;20263;-61
2022/07/02 07:44:17;;;;;;;1.73;1.63;;;;;;;;;;5077523;28;20211;-61
2022/07/02 07:46:44;;;;;;;1.60;1.50;;;;;;;;;;5077029;28;20212;-60
2022/07/02 07:49:12;;;;;;;2.55;1.67;;;;;;;;;;5077444;28;20303;-60
2022/07/02 07:51:39;;;;;;;1.45;1.35;;;;;;;;;;5078553;28;20749;-61
2022/07/02 07:54:07;;;;;;;2.08;1.95;;;;;;;;;;5098367;28;20207;-60
2022/07/02 07:56:34;;;;;;;2.45;1.85;;;;;;;;;;5097547;28;20263;-60
2022/07/02 07:59:03;;;;;;;1.85;1.75;;;;;;;;;;5096771;28;20258;-60
2022/07/02 08:01:31;;;;;;;1.70;1.60;;;;;;;;;;5097721;28;20263;-60
2022/07/02 08:03:58;;;;;;;2.13;1.65;;;;;;;;;;5092908;28;20258;-61
2022/07/02 08:06:25;;;;;;;1.98;1.88;;;;;;;;;;5077189;28;20204;-60
2022/07/02 08:08:53;;;;;;;2.00;1.60;;;;;;;;;;5076395;28;20273;-60
2022/07/02 08:11:21;;;;;;;2.58;1.40;;;;;;;;;;5076852;28;20204;-60
2022/07/02 08:13:48;;;;;;;1.90;1.80;;;;;;;;;;5076912;28;20200;-61
2022/07/02 08:16:17;;;;;;;1.90;1.65;;;;;;;;;;5077441;28;20204;-61
2022/07/02 08:18:45;;;;;;;1.60;1.50;;;;;;;;;;5089037;28;20662;-61
2022/07/02 08:21:12;;;;;;;1.60;1.50;;;;;;;;;;5096881;28;20227;-60
2022/07/02 08:23:40;;;;;;;1.70;1.60;;;;;;;;;;5097688;28;20235;-61
2022/07/02 08:26:07;;;;;;;1.63;1.52;;;;;;;;;;5097270;28;20208;-61
2022/07/02 08:28:35;;;;;;;1.92;1.50;;;;;;;;;;5096640;28;20609;-61
2022/07/02 08:31:02;;;;;;;1.40;1.30;;;;;;;;;;5096822;28;20199;-61
2022/07/02 08:33:31;;;;;;;1.48;1.30;;;;;;;;;;5090958;28;20262;-60
2022/07/02 08:36:00;;;;;;;1.40;1.30;;;;;;;;;;5075673;28;20606;-61
2022/07/02 08:38:27;;;;;;;1.77;1.50;;;;;;;;;;5075265;28;20511;-60
2022/07/02 08:40:55;;;;;;;1.58;1.48;;;;;;;;;;5075848;28;20224;-61
2022/07/02 08:43:24;;;;;;;2.10;1.30;;;;;;;;;;5076269;28;20212;-61
2022/07/02 08:45:53;;;;;;;1.50;1.40;;;;;;;;;;5075908;28;20270;-61
2022/07/02 08:48:22;;;;;;;1.63;1.40;;;;;;;;;;5075705;28;20663;-61
2022/07/02 08:50:53;;;;;;;1.40;1.30;;;;;;;;;;5081844;28;20469;-61
2022/07/02 08:53:20;;;;;;;1.73;1.40;;;;;;;;;;5096165;28;20203;-61
2022/07/02 08:55:51;;;;;;;1.70;1.38;;;;;;;;;;5095440;28;20219;-61
2022/07/02 08:58:19;;;;;;;2.45;1.50;;;;;;;;;;5096544;28;20234;-61
2022/07/02 09:00:47;;;;;;;2.00;1.40;;;;;;;;;;5095439;28;20235;-61
2022/07/02 09:03:15;;;;;;;1.90;1.50;;;;;;;;;;5095573;28;20200;-61
2022/07/02 09:05:44;;;;;;;2.40;1.40;;;;;;;;;;5095324;28;20211;-61
2022/07/02 09:08:13;;;;;;;1.55;1.40;;;;;;;;;;5094757;28;20222;-60
2022/07/02 09:10:40;;;;;;;1.48;1.33;;;;;;;;;;5093464;28;20486;-61
2022/07/02 09:13:08;;;;;;;1.52;1.42;;;;;;;;;;5095027;28;20332;-61
2022/07/02 09:15:37;;;;;;;2.17;1.58;;;;;;;;;;5095538;28;20291;-61
2022/07/02 09:18:04;;;;;;;1.30;1.20;;;;;;;;;;5094791;28;20594;-61
2022/07/02 09:20:32;;;;;;;2.15;1.50;;;;;;;;;;5094926;28;20276;-61
2022/07/02 09:22:59;;;;;;;1.63;1.20;;;;;;;;;;5094791;28;20236;-60
2022/07/02 09:25:28;;;;;;;1.75;1.40;;;;;;;;;;5095033;28;20242;-60
2022/07/02 09:27:59;;;;;;;1.48;1.38;;;;;;;;;;5095198;28;20235;-60
2022/07/02 09:30:30;;;;;;;1.40;1.30;;;;;;;;;;5094822;28;20247;-60
2022/07/02 09:35:38;;;;;;;1.67;1.45;;;;;;;;;;5072604;28;20192;-60
2022/07/02 09:38:09;;;;;;;1.50;1.17;;;;;;;;;;5073381;28;20204;-60
2022/07/02 09:40:39;;;;;;;1.50;1.38;;;;;;;;;;5073046;28;20207;-61
2022/07/02 09:43:07;;;;;;;3.15;1.40;;;;;;;;;;5074742;28;20251;-61
2022/07/02 09:45:34;;;;;;;2.33;1.40;;;;;;;;;;5074272;28;20243;-61
2022/07/02 09:48:03;;;;;;;1.42;1.30;;;;;;;;;;5076482;28;20278;-61
2022/07/02 09:50:31;;;;;;;1.42;1.30;;;;;;;;;;5077771;28;20231;-61
2022/07/02 09:52:59;;;;;;;1.30;1.20;;;;;;;;;;5078660;28;20242;-61
2022/07/02 09:55:28;;;;;;;1.17;1.08;;;;;;;;;;5087240;28;20256;-61
2022/07/02 09:57:57;;;;;;;3.28;1.35;;;;;;;;;;5098381;28;20250;-61
2022/07/02 10:00:25;;;;;;;2.10;1.30;;;;;;;;;;5099306;28;20203;-61
2022/07/02 10:02:53;;;;;;;2.70;1.15;;;;;;;;;;5098712;28;20334;-61
2022/07/02 10:05:25;;;;;;;2.30;1.45;;;;;;;;;;5098678;28;20199;-61
2022/07/02 10:07:54;;;;;;;1.63;1.30;;;;;;;;;;5098775;28;20231;-61
2022/07/02 10:10:25;;;;;;;1.52;1.30;;;;;;;;;;5099504;28;20586;-60
2022/07/02 10:12:53;;;;;;;1.80;1.20;;;;;;;;;;5098749;28;20543;-60
2022/07/02 10:15:24;;;;;;;1.40;1.20;;;;;;;;;;5098080;28;20239;-60
2022/07/02 10:17:55;;;;;;;1.40;1.15;;;;;;;;;;5097663;28;20204;-60
2022/07/02 10:20:23;;;;;;;1.52;1.10;;;;;;;;;;5090176;28;20196;-60
2022/07/02 10:22:51;;;;;;;1.77;1.25;;;;;;;;;;5078724;28;20553;-60
2022/07/02 10:25:19;;;;;;;1.10;1.10;;;;;;;;;;5077827;28;20232;-60
2022/07/02 10:27:47;;;;;;;1.20;1.10;;;;;;;;;;5078201;28;20630;-60
2022/07/02 10:30:16;;;;;;;1.27;1.15;;;;;;;;;;5077820;28;20546;-60
2022/07/02 10:32:51;;;;;;;1.48;1.10;;;;;;;;;;5077988;28;20231;-61
2022/07/02 10:35:20;;;;;;;1.63;1.20;;;;;;;;;;5077609;28;20613;-61
2022/07/02 10:37:48;;;;;;;2.33;1.30;;;;;;;;;;5078028;28;20224;-60
2022/07/02 10:40:18;;;;;;;1.05;1.00;;;;;;;;;;5077787;28;20204;-60
2022/07/02 10:42:48;;;;;;;1.48;1.30;;;;;;;;;;5077258;28;20220;-60
2022/07/02 10:45:16;;;;;;;1.60;1.20;;;;;;;;;;5077753;28;20212;-61
2022/07/02 10:47:58;;;;;;;2.05;1.20;;;;;;;;;;5086754;28;20233;-61
2022/07/02 10:50:40;;;;;;;1.75;1.10;;;;;;;;;;5097381;28;20214;-61
2022/07/02 10:53:11;;;;;;;1.92;1.10;;;;;;;;;;5097682;28;20191;-60
2022/07/02 10:55:39;;;;;;;1.00;1.00;;;;;;;;;;5098099;28;20298;-60
2022/07/02 10:58:07;;;;;;;1.85;1.08;;;;;;;;;;5097705;28;20253;-60
2022/07/02 11:00:36;;;;;;;1.80;1.27;;;;;;;;;;5097544;28;20234;-60
2022/07/02 11:03:15;;;;;;;1.05;0.98;;;;;;;;;;5097546;28;20713;-61
2022/07/02 11:05:56;;;;;;;1.15;1.05;;;;;;;;;;5097263;28;20250;-61
2022/07/02 11:08:44;;;;;;;0.90;0.90;;;;;;;;;;5097177;28;20500;-60
2022/07/02 11:11:12;;;;;;;1.30;1.20;;;;;;;;;;5097045;28;20215;-60
2022/07/02 11:13:42;;;;;;;1.30;1.20;;;;;;;;;;5096431;28;20220;-60
2022/07/02 11:16:21;;;;;;;1.05;1.00;;;;;;;;;;5079468;28;20226;-60
2022/07/02 11:18:51;;;;;;;1.20;1.10;;;;;;;;;;5076422;28;20203;-60
2022/07/02 11:21:18;;;;;;;1.63;1.15;;;;;;;;;;5076511;28;20246;-61
2022/07/02 11:23:46;;;;;;;1.30;1.20;;;;;;;;;;5076704;28;20239;-60
2022/07/02 11:26:17;;;;;;;1.35;1.13;;;;;;;;;;5076010;28;20591;-60
2022/07/02 11:28:45;;;;;;;2.65;1.20;;;;;;;;;;5076538;28;20208;-66
2022/07/02 11:31:12;;;;;;;1.35;1.05;;;;;;;;;;5076453;28;20297;-60
2022/07/02 11:33:43;;;;;;;1.50;1.02;;;;;;;;;;5075831;28;20334;-61
2022/07/02 11:36:12;;;;;;;1.30;1.20;;;;;;;;;;5075777;28;20305;-60
2022/07/02 11:38:43;;;;;;;1.42;1.02;;;;;;;;;;5076171;28;20212;-61
2022/07/02 11:41:18;;;;;;;1.02;1.00;;;;;;;;;;5075697;28;20334;-61
2022/07/02 11:43:45;;;;;;;1.20;1.10;;;;;;;;;;5076190;28;20661;-60
2022/07/02 11:46:14;;;;;;;1.17;1.08;;;;;;;;;;5076018;28;20539;-61
2022/07/02 11:48:43;;;;;;;1.17;1.08;;;;;;;;;;5076443;28;20212;-60
2022/07/02 11:51:13;;;;;;;2.75;1.10;;;;;;;;;;5075497;28;20242;-61
2022/07/02 11:53:40;;;;;;;1.45;1.20;;;;;;;;;;5075622;28;20211;-60
2022/07/02 11:56:09;;;;;;;1.20;1.00;;;;;;;;;;5076049;28;20204;-60
2022/07/02 11:58:43;;;;;;;2.10;1.00;;;;;;;;;;5076159;28;20299;-60
2022/07/02 12:01:21;;;;;;;1.00;0.90;;;;;;;;;;5075152;28;20611;-60
2022/07/02 12:03:49;;;;;;;1.10;1.00;;;;;;;;;;5076104;28;20285;-60
2022/07/02 12:06:18;;;;;;;2.50;1.10;;;;;;;;;;5076037;28;20299;-60
2022/07/02 12:08:46;;;;;;;0.93;0.90;;;;;;;;;;5076219;28;20240;-61
2022/07/02 12:11:18;;;;;;;2.13;1.00;;;;;;;;;;5058255;28;20223;-61
2022/07/02 12:13:45;;;;;;;1.17;1.08;;;;;;;;;;5075466;28;20212;-61
2022/07/02 12:16:14;;;;;;;1.02;0.98;;;;;;;;;;5075460;28;20204;-60
2022/07/02 12:18:41;;;;;;;1.00;1.00;;;;;;;;;;5075671;28;20269;-62
2022/07/02 12:21:10;;;;;;;1.42;0.93;;;;;;;;;;5075419;28;20620;-61
2022/07/02 12:23:49;;;;;;;1.17;1.08;;;;;;;;;;5074321;28;20228;-61
2022/07/02 12:26:23;;;;;;;0.93;0.82;;;;;;;;;;5075388;28;20243;-61
2022/07/02 12:31:46;;;;;;;1.17;1.08;;;;;;;;;;5074283;28;20338;-61
2022/07/02 12:34:14;;;;;;;0.90;0.90;;;;;;;;;;5074515;28;20243;-60
2022/07/02 12:36:48;;;;;;;1.90;1.27;;;;;;;;;;5074540;28;20254;-61
2022/07/02 12:39:17;;;;;;;2.67;1.20;;;;;;;;;;5074661;28;20238;-60
2022/07/02 12:41:45;;;;;;;1.02;0.98;;;;;;;;;;5074674;28;20231;-60
2022/07/02 12:44:19;;;;;;;1.52;0.95;;;;;;;;;;5074518;28;20215;-60
2022/07/02 12:46:48;;;;;;;1.20;1.10;;;;;;;;;;5074231;28;20231;-60
2022/07/02 12:49:20;;;;;;;1.80;1.30;;;;;;;;;;5074782;28;20200;-60
2022/07/02 12:51:54;;;;;;;1.10;1.05;;;;;;;;;;5074153;28;20240;-61
2022/07/02 12:54:23;;;;;;;1.10;1.00;;;;;;;;;;5075578;28;20276;-61
2022/07/02 12:56:50;;;;;;;1.17;1.08;;;;;;;;;;5075224;28;20242;-61
2022/07/02 12:59:18;;;;;;;1.20;1.10;;;;;;;;;;5074719;28;20212;-61
2022/07/02 13:01:46;;;;;;;1.65;1.20;;;;;;;;;;5073715;28;20303;-60
2022/07/02 13:04:13;;;;;;;1.20;1.10;;;;;;;;;;5073917;28;20226;-60
2022/07/02 13:06:43;;;;;;;1.10;1.00;;;;;;;;;;5073883;28;20239;-61
2022/07/02 13:09:11;;;;;;;1.50;0.98;;;;;;;;;;5074157;28;20326;-60
2022/07/02 13:11:40;;;;;;;1.20;1.10;;;;;;;;;;5074109;28;20204;-60
2022/07/02 13:14:08;;;;;;;1.20;1.10;;;;;;;;;;5073348;28;20703;-61
2022/07/02 13:16:36;;;;;;;1.80;1.20;;;;;;;;;;5073849;28;20638;-61
2022/07/02 13:19:04;;;;;;;1.73;1.13;;;;;;;;;;5074830;28;20204;-61
2022/07/02 13:21:31;;;;;;;2.40;1.10;;;;;;;;;;5073736;28;20607;-61
2022/07/02 13:23:59;;;;;;;1.10;1.00;;;;;;;;;;5073791;28;20266;-60
2022/07/02 13:26:26;;;;;;;1.00;1.00;;;;;;;;;;5074253;28;20264;-62
2022/07/02 13:28:55;;;;;;;1.85;0.98;;;;;;;;;;5074682;28;20200;-61
2022/07/02 13:31:23;;;;;;;1.73;1.10;;;;;;;;;;5074154;28;20200;-61
2022/07/02 13:33:50;;;;;;;1.27;1.20;;;;;;;;;;5073966;28;20208;-61
2022/07/02 13:36:18;;;;;;;1.27;1.17;;;;;;;;;;5073852;28;20299;-61
2022/07/02 13:38:46;;;;;;;1.33;1.23;;;;;;;;;;5074122;28;20200;-61
2022/07/02 13:41:13;;;;;;;1.20;1.10;;;;;;;;;;5074295;28;20244;-61
2022/07/02 13:43:41;;;;;;;1.15;1.00;;;;;;;;;;5074359;28;20235;-61
2022/07/02 13:46:10;;;;;;;1.25;1.15;;;;;;;;;;5073619;28;20240;-61
2022/07/02 13:48:37;;;;;;;1.30;1.20;;;;;;;;;;5073628;28;20771;-61
2022/07/02 13:51:05;;;;;;;1.35;1.17;;;;;;;;;;5072931;28;20536;-61
2022/07/02 13:53:32;;;;;;;2.25;1.10;;;;;;;;;;5073428;28;20209;-61
2022/07/02 13:56:00;;;;;;;2.22;1.20;;;;;;;;;;5074311;28;20262;-61
2022/07/02 13:58:27;;;;;;;1.08;1.00;;;;;;;;;;5073292;28;20289;-61
2022/07/02 14:00:55;;;;;;;1.30;1.00;;;;;;;;;;5072915;28;20796;-61
2022/07/02 14:03:24;;;;;;;1.20;1.10;;;;;;;;;;5087142;28;20322;-61
2022/07/02 14:05:52;;;;;;;1.33;1.23;;;;;;;;;;5092917;28;20200;-61
2022/07/02 14:08:20;;;;;;;2.15;1.33;;;;;;;;;;5092973;28;20562;-61
2022/07/02 14:10:47;;;;;;;1.10;1.05;;;;;;;;;;5092817;28;20195;-61
2022/07/02 14:13:15;;;;;;;1.10;1.10;;;;;;;;;;5093537;28;20287;-61
2022/07/02 14:15:42;;;;;;;0.98;0.98;;;;;;;;;;5080164;28;20239;-61
2022/07/02 14:18:10;;;;;;;0.90;0.90;;;;;;;;;;5073762;28;20197;-61
2022/07/02 14:20:39;;;;;;;1.10;1.00;;;;;;;;;;5073826;28;20201;-61
2022/07/02 14:23:08;;;;;;;1.20;1.10;;;;;;;;;;5078029;28;20238;-61
2022/07/02 14:25:36;;;;;;;2.83;1.20;;;;;;;;;;5093630;28;20295;-61
2022/07/02 14:28:03;;;;;;;2.42;1.00;;;;;;;;;;5094026;28;20235;-61
2022/07/02 14:30:31;;;;;;;1.10;1.00;;;;;;;;;;5093922;28;20210;-61
2022/07/02 14:32:59;;;;;;;2.20;1.40;;;;;;;;;;5093694;28;20204;-61
2022/07/02 14:35:26;;;;;;;1.33;1.02;;;;;;;;;;5096716;28;20211;-61
2022/07/02 14:37:56;;;;;;;0.98;0.88;;;;;;;;;;5097902;28;20204;-61
2022/07/02 14:40:23;;;;;;;1.73;0.90;;;;;;;;;;5098332;28;20222;-61
2022/07/02 14:42:52;;;;;;;1.40;0.88;;;;;;;;;;5097161;28;20272;-61
2022/07/02 14:45:21;;;;;;;1.10;1.00;;;;;;;;;;5096247;28;20474;-61
2022/07/02 14:47:48;;;;;;;1.05;0.95;;;;;;;;;;5096280;28;20226;-61
2022/07/02 14:50:16;;;;;;;1.33;0.90;;;;;;;;;;5097483;28;20227;-61
2022/07/02 14:52:43;;;;;;;1.50;0.82;;;;;;;;;;5097303;28;20637;-60
2022/07/02 14:55:12;;;;;;;1.13;1.10;;;;;;;;;;5096987;28;20246;-61
2022/07/02 14:57:40;;;;;;;0.80;0.80;;;;;;;;;;5096678;28;20219;-61
2022/07/02 15:00:09;;;;;;;1.65;1.10;;;;;;;;;;5095754;28;20256;-61
2022/07/02 15:02:38;;;;;;;1.85;1.10;;;;;;;;;;5092988;28;20617;-61